Time;durP1;ratioP1;P1;durP2;ratioP2;P2;SDS_P1;SDS_P2;PMS_P1;PMS_P2;Temp;Humidity;BMP_temperature;BMP_pressure;BME280_temperature;BME280_humidity;BME280_pressure;Samples;Min_cycle;Max_cycle;Signal;HPM_P1;HPM_P2
2023/01/29 00:02:16;;;;;;;20.30;12.27;;;;;;;;;;5067278;28;20200;-73
2023/01/29 00:04:42;;;;;;;20.37;12.87;;;;;;;;;;5063659;28;20253;-74
2023/01/29 00:07:07;;;;;;;19.87;12.47;;;;;;;;;;5081653;28;20181;-73
2023/01/29 00:09:32;;;;;;;18.43;11.90;;;;;;;;;;5084574;28;20248;-73
2023/01/29 00:11:57;;;;;;;22.13;13.33;;;;;;;;;;5074862;28;20211;-75
2023/01/29 00:14:23;;;;;;;18.63;12.70;;;;;;;;;;5083907;28;20625;-74
2023/01/29 00:16:48;;;;;;;21.20;12.13;;;;;;;;;;5074501;28;20177;-74
2023/01/29 00:19:13;;;;;;;20.07;14.00;;;;;;;;;;5079542;28;20630;-75
2023/01/29 00:21:38;;;;;;;18.80;12.03;;;;;;;;;;5074656;28;20180;-75
2023/01/29 00:24:03;;;;;;;22.70;13.37;;;;;;;;;;5074307;28;20231;-75
2023/01/29 00:26:29;;;;;;;21.50;12.80;;;;;;;;;;5074369;28;20179;-75
2023/01/29 00:28:56;;;;;;;20.90;12.73;;;;;;;;;;5075989;28;20709;-75
2023/01/29 00:31:22;;;;;;;18.23;12.00;;;;;;;;;;5071250;28;20173;-74
2023/01/29 00:33:47;;;;;;;20.23;12.90;;;;;;;;;;5074884;28;20902;-75
2023/01/29 00:36:13;;;;;;;18.90;12.30;;;;;;;;;;5073229;28;20519;-74
2023/01/29 00:38:38;;;;;;;22.07;12.67;;;;;;;;;;5058149;28;20204;-74
2023/01/29 00:46:35;;;;;;;21.93;13.90;;;;;;;;;;5075800;28;20179;-75
2023/01/29 00:49:00;;;;;;;21.53;12.13;;;;;;;;;;5068182;28;20561;-74
2023/01/29 00:51:25;;;;;;;20.83;12.57;;;;;;;;;;5074887;28;20172;-74
2023/01/29 00:53:50;;;;;;;20.80;13.73;;;;;;;;;;5080201;28;20207;-74
2023/01/29 00:56:15;;;;;;;21.17;13.73;;;;;;;;;;5075134;28;20173;-74
2023/01/29 00:58:41;;;;;;;21.57;12.50;;;;;;;;;;5078162;28;20527;-74
2023/01/29 01:01:06;;;;;;;20.50;12.40;;;;;;;;;;5077849;28;20198;-74
2023/01/29 01:03:34;;;;;;;19.07;13.00;;;;;;;;;;5086351;28;20212;-74
2023/01/29 01:06:05;;;;;;;20.70;13.03;;;;;;;;;;5083373;28;20187;-74
2023/01/29 01:11:15;;;;;;;18.83;12.30;;;;;;;;;;5077001;28;20232;-74
2023/01/29 01:13:40;;;;;;;19.63;12.27;;;;;;;;;;5079530;28;20280;-75
2023/01/29 01:16:12;;;;;;;20.00;12.53;;;;;;;;;;5075652;28;20335;-74
2023/01/29 01:18:37;;;;;;;21.50;12.10;;;;;;;;;;5077991;28;20605;-75
2023/01/29 01:21:03;;;;;;;20.73;13.67;;;;;;;;;;5074746;28;20176;-73
2023/01/29 01:23:28;;;;;;;22.03;12.87;;;;;;;;;;5071528;28;20192;-73
2023/01/29 01:25:53;;;;;;;20.80;13.07;;;;;;;;;;5074582;28;20192;-74
2023/01/29 01:28:18;;;;;;;21.93;12.60;;;;;;;;;;5080782;28;20262;-74
2023/01/29 01:30:43;;;;;;;17.57;12.20;;;;;;;;;;5082450;28;20550;-74
2023/01/29 01:33:09;;;;;;;24.50;13.27;;;;;;;;;;5090032;28;20208;-73
2023/01/29 01:35:34;;;;;;;21.60;14.10;;;;;;;;;;5091169;28;20254;-73
2023/01/29 01:37:59;;;;;;;20.67;13.50;;;;;;;;;;5091617;28;20288;-73
2023/01/29 01:40:25;;;;;;;19.60;12.73;;;;;;;;;;5091963;28;20569;-74
2023/01/29 01:42:55;;;;;;;20.87;12.77;;;;;;;;;;5083435;28;20744;-74
2023/01/29 01:45:23;;;;;;;20.60;12.23;;;;;;;;;;5086722;28;20429;-75
2023/01/29 01:47:51;;;;;;;20.70;13.07;;;;;;;;;;5082816;28;20227;-73
2023/01/29 01:50:21;;;;;;;19.67;12.03;;;;;;;;;;5084470;28;20263;-74
2023/01/29 01:52:50;;;;;;;20.53;13.20;;;;;;;;;;5081866;28;20959;-74
2023/01/29 01:55:17;;;;;;;19.70;12.70;;;;;;;;;;5087804;28;20320;-73
2023/01/29 01:57:43;;;;;;;21.10;13.83;;;;;;;;;;5075100;28;20179;-75
2023/01/29 02:00:11;;;;;;;24.60;14.97;;;;;;;;;;5092004;28;20602;-75
2023/01/29 02:10:49;;;;;;;25.57;14.50;;;;;;;;;;5087279;28;20545;-74
2023/01/29 02:13:16;;;;;;;21.40;13.20;;;;;;;;;;5091466;28;20211;-74
2023/01/29 02:15:45;;;;;;;21.87;13.40;;;;;;;;;;5072866;28;20176;-74
2023/01/29 02:18:10;;;;;;;22.07;13.43;;;;;;;;;;5090262;28;20173;-74
2023/01/29 02:20:37;;;;;;;22.20;14.50;;;;;;;;;;5077341;28;20238;-74
2023/01/29 02:23:11;;;;;;;21.27;13.30;;;;;;;;;;5078120;28;20579;-74
2023/01/29 02:25:55;;;;;;;24.73;15.20;;;;;;;;;;5085147;28;20187;-73
2023/01/29 02:28:23;;;;;;;23.17;13.90;;;;;;;;;;5089411;28;20172;-73
2023/01/29 02:30:51;;;;;;;22.30;14.63;;;;;;;;;;5086645;28;20189;-73
2023/01/29 02:33:25;;;;;;;23.77;15.13;;;;;;;;;;5088144;28;20204;-73
2023/01/29 02:36:13;;;;;;;24.00;15.27;;;;;;;;;;5082937;28;20184;-75
2023/01/29 02:38:47;;;;;;;19.87;14.73;;;;;;;;;;5065881;28;20188;-74
2023/01/29 02:41:21;;;;;;;26.77;16.33;;;;;;;;;;5089400;28;20177;-74
2023/01/29 02:43:46;;;;;;;25.00;15.73;;;;;;;;;;5086691;28;20620;-74
2023/01/29 02:46:30;;;;;;;25.03;16.00;;;;;;;;;;5090277;28;20173;-74
2023/01/29 02:49:14;;;;;;;25.00;16.17;;;;;;;;;;5078856;28;20668;-73
2023/01/29 02:51:43;;;;;;;27.00;16.27;;;;;;;;;;5061840;28;20188;-73
2023/01/29 02:54:23;;;;;;;27.67;16.37;;;;;;;;;;5077973;28;20196;-73
2023/01/29 02:56:52;;;;;;;24.60;16.07;;;;;;;;;;5079708;28;20265;-73
2023/01/29 02:59:20;;;;;;;26.73;15.67;;;;;;;;;;5078316;28;20200;-73
2023/01/29 03:01:57;;;;;;;24.40;16.00;;;;;;;;;;5081271;28;20192;-75
2023/01/29 03:04:24;;;;;;;27.87;16.13;;;;;;;;;;5058824;28;20287;-75
2023/01/29 03:07:05;;;;;;;23.23;15.63;;;;;;;;;;5085888;28;20287;-74
2023/01/29 03:09:36;;;;;;;24.03;15.63;;;;;;;;;;5076541;28;20180;-74
2023/01/29 03:12:32;;;;;;;26.97;16.37;;;;;;;;;;5076012;28;20176;-75
2023/01/29 03:15:10;;;;;;;22.93;14.53;;;;;;;;;;5080265;28;20215;-74
2023/01/29 03:17:59;;;;;;;25.23;15.90;;;;;;;;;;5077969;28;20181;-74
2023/01/29 03:20:31;;;;;;;27.20;15.80;;;;;;;;;;5051365;28;20184;-74
2023/01/29 03:22:57;;;;;;;26.13;15.27;;;;;;;;;;5088699;28;20223;-74
2023/01/29 03:33:42;;;;;;;24.73;14.50;;;;;;;;;;5079398;28;20284;-74
2023/01/29 03:36:10;;;;;;;26.47;16.00;;;;;;;;;;5086560;28;20181;-74
2023/01/29 03:38:35;;;;;;;25.90;15.53;;;;;;;;;;5080325;28;20690;-74
2023/01/29 03:41:22;;;;;;;24.13;14.20;;;;;;;;;;5088549;28;20204;-74
2023/01/29 03:43:50;;;;;;;23.40;15.10;;;;;;;;;;5083128;28;20210;-74
2023/01/29 03:46:22;;;;;;;26.27;15.57;;;;;;;;;;5090152;28;20233;-74
2023/01/29 03:48:56;;;;;;;24.23;14.80;;;;;;;;;;5083427;28;20177;-74
2023/01/29 03:51:36;;;;;;;23.47;15.27;;;;;;;;;;5087678;28;20178;-75
2023/01/29 03:54:10;;;;;;;27.37;15.10;;;;;;;;;;5070204;28;20233;-74
2023/01/29 03:56:35;;;;;;;27.80;16.00;;;;;;;;;;5089329;28;20183;-74
2023/01/29 03:59:27;;;;;;;22.53;14.57;;;;;;;;;;5088582;28;20243;-75
2023/01/29 04:02:01;;;;;;;25.47;14.97;;;;;;;;;;5036964;28;20191;-74
2023/01/29 04:04:28;;;;;;;22.90;14.87;;;;;;;;;;5089094;28;20195;-74
2023/01/29 04:06:56;;;;;;;29.57;16.37;;;;;;;;;;5089646;28;20215;-74
2023/01/29 04:09:26;;;;;;;25.60;15.93;;;;;;;;;;5083890;28;20183;-74
2023/01/29 04:11:56;;;;;;;23.53;14.57;;;;;;;;;;5086354;28;20188;-74
2023/01/29 04:14:21;;;;;;;28.27;15.90;;;;;;;;;;5082722;28;20212;-74
2023/01/29 04:16:48;;;;;;;26.43;15.20;;;;;;;;;;5082808;28;20188;-75
2023/01/29 04:19:14;;;;;;;24.03;15.27;;;;;;;;;;5083966;28;20184;-74
2023/01/29 04:21:39;;;;;;;25.20;15.43;;;;;;;;;;5089944;28;20218;-74
2023/01/29 04:24:05;;;;;;;27.70;16.33;;;;;;;;;;5077993;28;20585;-74
2023/01/29 04:26:48;;;;;;;25.53;16.27;;;;;;;;;;5070050;28;20265;-75
2023/01/29 04:29:22;;;;;;;27.47;15.07;;;;;;;;;;5075933;28;20268;-75
2023/01/29 04:32:06;;;;;;;26.10;16.20;;;;;;;;;;5075783;28;20658;-74
2023/01/29 04:34:51;;;;;;;23.53;15.20;;;;;;;;;;5072039;28;20196;-74
2023/01/29 04:37:33;;;;;;;26.80;16.10;;;;;;;;;;5018060;28;20224;-74
2023/01/29 04:40:03;;;;;;;27.23;16.30;;;;;;;;;;5078447;28;20184;-74
2023/01/29 04:42:34;;;;;;;26.27;15.10;;;;;;;;;;5075036;28;20208;-74
2023/01/29 04:45:06;;;;;;;23.83;15.77;;;;;;;;;;5070832;28;20184;-75
2023/01/29 04:47:41;;;;;;;23.73;15.37;;;;;;;;;;5071214;28;20281;-74
2023/01/29 04:50:06;;;;;;;25.33;15.87;;;;;;;;;;5073392;28;20204;-74
2023/01/29 04:52:45;;;;;;;25.70;16.37;;;;;;;;;;5061664;28;20334;-75
2023/01/29 04:55:10;;;;;;;25.53;16.67;;;;;;;;;;5066991;28;20562;-74
2023/01/29 04:57:45;;;;;;;24.53;15.43;;;;;;;;;;5087608;28;20183;-74
2023/01/29 05:00:11;;;;;;;25.70;16.23;;;;;;;;;;5067519;28;20187;-74
2023/01/29 05:02:38;;;;;;;27.37;15.30;;;;;;;;;;5100843;22;20234;-70
2023/01/29 05:05:05;;;;;;;25.50;15.60;;;;;;;;;;5088041;28;20188;-70
2023/01/29 05:07:31;;;;;;;24.63;14.63;;;;;;;;;;5074443;28;20184;-70
2023/01/29 05:09:57;;;;;;;28.63;17.00;;;;;;;;;;5093984;28;20629;-71
2023/01/29 05:12:24;;;;;;;26.13;16.90;;;;;;;;;;5094005;28;20226;-71
2023/01/29 05:14:50;;;;;;;24.80;15.73;;;;;;;;;;5092502;28;20225;-71
2023/01/29 05:17:17;;;;;;;26.77;16.77;;;;;;;;;;5088688;28;20184;-70
2023/01/29 05:19:42;;;;;;;25.27;15.13;;;;;;;;;;5065767;28;20660;-72
2023/01/29 05:22:09;;;;;;;27.20;17.77;;;;;;;;;;5070439;28;20177;-70
2023/01/29 05:24:35;;;;;;;25.63;16.00;;;;;;;;;;5080158;28;20203;-70
2023/01/29 05:29:45;;;;;;;25.90;16.70;;;;;;;;;;5078332;28;20779;-70
2023/01/29 05:32:11;;;;;;;26.53;16.93;;;;;;;;;;5056933;28;20274;-71
2023/01/29 05:34:36;;;;;;;27.63;15.13;;;;;;;;;;5075780;28;20325;-71
2023/01/29 05:37:01;;;;;;;25.67;16.43;;;;;;;;;;5074598;28;20177;-71
2023/01/29 05:39:26;;;;;;;25.60;16.80;;;;;;;;;;5077811;28;20188;-71
2023/01/29 05:41:52;;;;;;;24.23;16.63;;;;;;;;;;5084529;28;20173;-71
2023/01/29 05:44:17;;;;;;;22.60;14.77;;;;;;;;;;5072032;28;20954;-71
2023/01/29 05:46:42;;;;;;;26.00;16.60;;;;;;;;;;5075005;28;20179;-71
2023/01/29 05:49:08;;;;;;;28.47;15.97;;;;;;;;;;5056122;28;20642;-71
2023/01/29 05:51:33;;;;;;;26.93;17.73;;;;;;;;;;5076236;28;20211;-70
2023/01/29 05:53:58;;;;;;;24.60;15.53;;;;;;;;;;5083475;28;20641;-72
2023/01/29 05:56:24;;;;;;;27.70;17.43;;;;;;;;;;5090382;28;20179;-71
2023/01/29 05:58:49;;;;;;;24.63;16.00;;;;;;;;;;5072122;28;20180;-71
2023/01/29 06:01:16;;;;;;;23.77;15.50;;;;;;;;;;5092193;28;20237;-72
2023/01/29 06:03:41;;;;;;;25.47;15.73;;;;;;;;;;5089389;28;20212;-71
2023/01/29 06:06:06;;;;;;;28.17;16.00;;;;;;;;;;5094251;28;20195;-71
2023/01/29 06:08:32;;;;;;;28.80;17.57;;;;;;;;;;5087290;28;20189;-70
2023/01/29 06:10:57;;;;;;;25.87;15.40;;;;;;;;;;5084845;28;20246;-71
2023/01/29 06:13:22;;;;;;;25.43;16.33;;;;;;;;;;5091382;28;20596;-70
2023/01/29 06:15:47;;;;;;;25.50;15.67;;;;;;;;;;5086788;28;20172;-71
2023/01/29 06:18:13;;;;;;;25.97;16.60;;;;;;;;;;5083389;28;20181;-70
2023/01/29 06:20:38;;;;;;;24.97;15.17;;;;;;;;;;5085270;28;20605;-71
2023/01/29 06:23:03;;;;;;;26.63;17.10;;;;;;;;;;5085375;28;20193;-71
2023/01/29 06:25:28;;;;;;;23.07;15.63;;;;;;;;;;5087223;28;20529;-71
2023/01/29 06:27:53;;;;;;;29.37;16.73;;;;;;;;;;5084521;28;20272;-70
2023/01/29 06:30:19;;;;;;;23.60;15.77;;;;;;;;;;5087100;28;20646;-70
2023/01/29 06:32:44;;;;;;;25.00;15.30;;;;;;;;;;5088952;28;20203;-71
2023/01/29 06:35:09;;;;;;;23.63;15.07;;;;;;;;;;5091093;28;20215;-70
2023/01/29 06:37:35;;;;;;;25.87;16.30;;;;;;;;;;5080808;28;20197;-71
2023/01/29 06:40:00;;;;;;;24.50;15.73;;;;;;;;;;5089888;28;20215;-71
2023/01/29 06:42:26;;;;;;;24.83;16.20;;;;;;;;;;5090222;28;20580;-71
2023/01/29 06:44:52;;;;;;;23.57;15.83;;;;;;;;;;5078164;28;20173;-71
2023/01/29 06:47:18;;;;;;;25.43;15.60;;;;;;;;;;5071854;28;20192;-71
2023/01/29 06:49:43;;;;;;;25.67;15.63;;;;;;;;;;5079212;28;20218;-70
2023/01/29 06:52:08;;;;;;;25.47;14.97;;;;;;;;;;5061364;28;20183;-70
2023/01/29 06:54:34;;;;;;;26.00;15.70;;;;;;;;;;5081139;28;20212;-71
2023/01/29 06:56:59;;;;;;;23.57;14.33;;;;;;;;;;5081779;28;20584;-71
2023/01/29 06:59:24;;;;;;;22.77;14.37;;;;;;;;;;5074184;28;20653;-70
2023/01/29 07:01:49;;;;;;;23.77;14.83;;;;;;;;;;5077902;28;20763;-71
2023/01/29 07:04:15;;;;;;;23.23;15.60;;;;;;;;;;5074730;28;20219;-71
2023/01/29 07:06:40;;;;;;;26.33;14.13;;;;;;;;;;5073742;28;20268;-72
2023/01/29 07:09:05;;;;;;;23.37;15.80;;;;;;;;;;5072132;28;22120;-71
2023/01/29 07:11:31;;;;;;;23.67;15.13;;;;;;;;;;5071559;28;20184;-70
2023/01/29 07:13:56;;;;;;;22.80;15.03;;;;;;;;;;5081632;28;20727;-71
2023/01/29 07:16:22;;;;;;;23.10;14.93;;;;;;;;;;5092470;28;20176;-71
2023/01/29 07:18:47;;;;;;;20.80;15.40;;;;;;;;;;5086027;28;20763;-72
2023/01/29 07:21:12;;;;;;;22.33;14.37;;;;;;;;;;5083302;28;20180;-72
2023/01/29 07:23:38;;;;;;;25.03;15.00;;;;;;;;;;5087499;28;20294;-71
2023/01/29 07:26:04;;;;;;;19.07;13.00;;;;;;;;;;5086572;28;20669;-72
2023/01/29 07:28:29;;;;;;;21.37;13.73;;;;;;;;;;5086374;28;20267;-72
2023/01/29 07:30:55;;;;;;;27.10;15.57;;;;;;;;;;5084456;28;20290;-72
2023/01/29 07:33:21;;;;;;;21.20;13.57;;;;;;;;;;5089570;28;20219;-72
2023/01/29 07:35:46;;;;;;;21.03;14.70;;;;;;;;;;5087277;28;20184;-71
2023/01/29 07:38:11;;;;;;;21.73;14.37;;;;;;;;;;5067104;28;20181;-72
2023/01/29 07:40:36;;;;;;;24.83;15.60;;;;;;;;;;5083164;28;20264;-71
2023/01/29 07:43:03;;;;;;;24.13;14.70;;;;;;;;;;5088711;28;20196;-72
2023/01/29 07:45:29;;;;;;;23.00;14.80;;;;;;;;;;5084711;28;20180;-70
2023/01/29 07:47:54;;;;;;;20.80;14.93;;;;;;;;;;5082589;28;20207;-71
2023/01/29 07:50:20;;;;;;;25.33;14.70;;;;;;;;;;5087242;28;20188;-72
2023/01/29 07:52:45;;;;;;;22.77;14.53;;;;;;;;;;5091372;28;20211;-71
2023/01/29 07:55:11;;;;;;;23.23;14.77;;;;;;;;;;5085424;28;20212;-71
2023/01/29 07:57:36;;;;;;;24.10;14.63;;;;;;;;;;5089038;28;20707;-71
2023/01/29 08:00:01;;;;;;;22.73;14.37;;;;;;;;;;5083772;28;20188;-71
2023/01/29 08:02:26;;;;;;;20.83;13.93;;;;;;;;;;5088738;28;20177;-71
2023/01/29 08:04:51;;;;;;;25.93;14.57;;;;;;;;;;5090587;28;20274;-71
2023/01/29 08:07:17;;;;;;;26.13;15.43;;;;;;;;;;5083047;28;20180;-71
2023/01/29 08:09:42;;;;;;;22.80;13.50;;;;;;;;;;5085571;28;20203;-72
2023/01/29 08:12:07;;;;;;;18.23;14.13;;;;;;;;;;5089139;28;20229;-71
2023/01/29 08:14:32;;;;;;;21.83;14.30;;;;;;;;;;5088378;28;20208;-72
2023/01/29 08:16:57;;;;;;;19.93;12.83;;;;;;;;;;5070544;28;20650;-69
2023/01/29 08:19:23;;;;;;;22.23;14.13;;;;;;;;;;5082939;28;20172;-70
2023/01/29 08:21:48;;;;;;;18.50;13.13;;;;;;;;;;5088417;28;20174;-70
2023/01/29 08:24:13;;;;;;;21.23;13.00;;;;;;;;;;5090346;28;20227;-70
2023/01/29 08:26:38;;;;;;;22.20;14.37;;;;;;;;;;5081018;28;20178;-70
2023/01/29 08:29:03;;;;;;;21.00;13.83;;;;;;;;;;5087037;28;20582;-70
2023/01/29 08:31:29;;;;;;;23.93;15.20;;;;;;;;;;5075327;28;20192;-70
2023/01/29 08:33:54;;;;;;;20.47;14.40;;;;;;;;;;5073892;28;20252;-70
2023/01/29 08:36:20;;;;;;;20.17;13.67;;;;;;;;;;5073920;28;20269;-70
2023/01/29 08:38:45;;;;;;;22.00;14.90;;;;;;;;;;5069752;28;20173;-72
2023/01/29 08:41:10;;;;;;;23.13;13.67;;;;;;;;;;5072267;28;20642;-70
2023/01/29 08:43:35;;;;;;;21.83;13.00;;;;;;;;;;5071414;28;20228;-70
2023/01/29 08:46:02;;;;;;;18.77;13.10;;;;;;;;;;5073121;28;20181;-70
2023/01/29 08:48:29;;;;;;;20.93;13.47;;;;;;;;;;5082343;28;20608;-69
2023/01/29 08:50:56;;;;;;;22.13;12.97;;;;;;;;;;5082833;28;20192;-72
2023/01/29 08:53:23;;;;;;;20.47;13.63;;;;;;;;;;5077884;28;20200;-72
2023/01/29 08:55:48;;;;;;;20.13;14.00;;;;;;;;;;5071231;28;20176;-70
2023/01/29 08:58:14;;;;;;;21.37;14.40;;;;;;;;;;5070110;28;20238;-70
2023/01/29 09:00:39;;;;;;;25.90;14.47;;;;;;;;;;5060395;28;20557;-71
2023/01/29 09:03:06;;;;;;;20.43;13.00;;;;;;;;;;5073173;28;20235;-69
2023/01/29 09:05:32;;;;;;;20.97;12.93;;;;;;;;;;5072468;28;20261;-70
2023/01/29 09:07:58;;;;;;;20.77;14.07;;;;;;;;;;5072406;28;20250;-71
2023/01/29 09:10:23;;;;;;;23.83;13.10;;;;;;;;;;5071514;28;20208;-71
2023/01/29 09:12:48;;;;;;;23.23;14.37;;;;;;;;;;5074773;28;20520;-71
2023/01/29 09:15:13;;;;;;;21.77;13.67;;;;;;;;;;5074372;28;20253;-70
2023/01/29 09:17:39;;;;;;;20.10;14.57;;;;;;;;;;5071482;28;20180;-71
2023/01/29 09:20:05;;;;;;;19.17;12.73;;;;;;;;;;5068244;28;20172;-70
2023/01/29 09:22:30;;;;;;;23.47;13.60;;;;;;;;;;5074194;28;20596;-70
2023/01/29 09:24:56;;;;;;;22.20;14.57;;;;;;;;;;5069379;28;20215;-71
2023/01/29 09:27:21;;;;;;;21.03;13.83;;;;;;;;;;5070944;28;20181;-70
2023/01/29 09:29:46;;;;;;;20.63;14.27;;;;;;;;;;5069180;28;20180;-70
2023/01/29 09:32:12;;;;;;;18.93;12.50;;;;;;;;;;5054286;28;20176;-71
2023/01/29 09:34:37;;;;;;;22.10;14.27;;;;;;;;;;5072966;28;20863;-71
2023/01/29 09:37:02;;;;;;;21.97;14.47;;;;;;;;;;5081504;28;20181;-71
2023/01/29 09:39:27;;;;;;;27.77;14.57;;;;;;;;;;5081431;28;20177;-70
2023/01/29 09:42:09;;;;;;;19.90;13.97;;;;;;;;;;5087620;28;20203;-70
2023/01/29 09:44:37;;;;;;;22.20;13.87;;;;;;;;;;5085732;28;20677;-71
2023/01/29 09:47:03;;;;;;;23.97;14.87;;;;;;;;;;5066155;28;20272;-71
2023/01/29 09:49:36;;;;;;;20.90;13.50;;;;;;;;;;5083602;28;20238;-71
2023/01/29 09:52:03;;;;;;;20.53;13.60;;;;;;;;;;5064464;28;20172;-70
2023/01/29 09:54:34;;;;;;;22.10;14.73;;;;;;;;;;5088166;28;20212;-72
2023/01/29 09:57:00;;;;;;;22.73;14.80;;;;;;;;;;5083084;28;20227;-71
2023/01/29 09:59:29;;;;;;;19.27;13.73;;;;;;;;;;5086099;28;20556;-71
2023/01/29 10:01:54;;;;;;;28.30;14.87;;;;;;;;;;5090895;28;20665;-71
2023/01/29 10:04:25;;;;;;;21.23;13.67;;;;;;;;;;5089525;28;20290;-71
2023/01/29 10:06:56;;;;;;;21.63;15.20;;;;;;;;;;5083472;28;20177;-70
2023/01/29 10:09:31;;;;;;;22.60;14.77;;;;;;;;;;5073564;28;20176;-71
2023/01/29 10:11:56;;;;;;;23.77;15.23;;;;;;;;;;5080570;28;20175;-71
2023/01/29 10:14:40;;;;;;;19.70;13.97;;;;;;;;;;5083571;28;20311;-71
2023/01/29 10:17:08;;;;;;;20.93;14.90;;;;;;;;;;5074431;28;20635;-71
2023/01/29 10:19:33;;;;;;;24.67;14.50;;;;;;;;;;5087440;28;20220;-71
2023/01/29 10:22:07;;;;;;;20.83;14.20;;;;;;;;;;5087203;28;20201;-71
2023/01/29 10:24:33;;;;;;;25.20;15.13;;;;;;;;;;5089995;28;20257;-71
2023/01/29 10:26:58;;;;;;;21.30;14.57;;;;;;;;;;5083783;28;20181;-71
2023/01/29 10:29:25;;;;;;;24.03;15.83;;;;;;;;;;5085428;28;20243;-71
2023/01/29 10:31:56;;;;;;;23.73;14.17;;;;;;;;;;5087795;28;20176;-71
2023/01/29 10:34:39;;;;;;;21.17;14.33;;;;;;;;;;5087620;28;20212;-72
2023/01/29 10:37:22;;;;;;;23.53;15.93;;;;;;;;;;5081240;28;20173;-72
2023/01/29 10:39:48;;;;;;;22.73;15.53;;;;;;;;;;5086352;28;20172;-72
2023/01/29 10:42:23;;;;;;;21.23;14.97;;;;;;;;;;5081477;28;20184;-71
2023/01/29 10:44:51;;;;;;;25.97;16.53;;;;;;;;;;5093877;28;20709;-71
2023/01/29 10:47:22;;;;;;;22.33;14.67;;;;;;;;;;5084161;28;20827;-70
2023/01/29 10:49:53;;;;;;;22.80;14.53;;;;;;;;;;5071413;28;20208;-71
2023/01/29 10:52:54;;;;;;;26.77;16.67;;;;;;;;;;5075267;28;20218;-71
2023/01/29 10:55:25;;;;;;;24.07;15.73;;;;;;;;;;4977797;28;20307;-70
2023/01/29 10:57:50;;;;;;;25.97;15.60;;;;;;;;;;5062622;28;20205;-70
2023/01/29 11:00:15;;;;;;;27.33;16.13;;;;;;;;;;5084536;28;20258;-71
2023/01/29 11:05:20;;;;;;;28.33;16.17;;;;;;;;;;5059761;28;20305;-74
2023/01/29 11:07:47;;;;;;;26.33;16.43;;;;;;;;;;5067039;28;20174;-73
2023/01/29 11:10:13;;;;;;;26.90;17.83;;;;;;;;;;5052772;28;20184;-73
2023/01/29 11:12:40;;;;;;;27.63;17.47;;;;;;;;;;5060424;28;20181;-73
2023/01/29 11:15:17;;;;;;;24.10;16.67;;;;;;;;;;5062040;28;20313;-73
2023/01/29 11:18:01;;;;;;;27.27;16.67;;;;;;;;;;5059266;28;20303;-73
2023/01/29 11:20:28;;;;;;;24.63;16.10;;;;;;;;;;5061680;28;20177;-73
2023/01/29 11:22:54;;;;;;;29.73;17.93;;;;;;;;;;5062178;28;20177;-74
2023/01/29 11:25:19;;;;;;;25.00;16.47;;;;;;;;;;5061656;28;20496;-74
2023/01/29 11:27:49;;;;;;;25.67;15.73;;;;;;;;;;5060892;28;20238;-73
2023/01/29 11:30:20;;;;;;;25.73;17.23;;;;;;;;;;5060508;28;20185;-74
2023/01/29 11:32:49;;;;;;;28.13;16.93;;;;;;;;;;5060977;28;20653;-74
2023/01/29 11:35:14;;;;;;;25.87;17.43;;;;;;;;;;5043630;28;20326;-74
2023/01/29 11:37:41;;;;;;;28.23;17.93;;;;;;;;;;5061336;28;20229;-74
2023/01/29 11:40:30;;;;;;;29.10;18.50;;;;;;;;;;5043342;28;20555;-74
2023/01/29 11:43:10;;;;;;;28.40;18.10;;;;;;;;;;5059341;28;20264;-74
2023/01/29 11:45:37;;;;;;;30.40;19.23;;;;;;;;;;5060196;28;20180;-74
2023/01/29 11:48:02;;;;;;;29.33;17.80;;;;;;;;;;5059514;28;20193;-74
2023/01/29 11:50:29;;;;;;;27.83;17.87;;;;;;;;;;5059532;28;20246;-74
2023/01/29 11:52:54;;;;;;;30.07;17.73;;;;;;;;;;5061903;28;20183;-74
2023/01/29 11:55:23;;;;;;;25.93;16.93;;;;;;;;;;5061868;28;20200;-74
2023/01/29 11:58:02;;;;;;;25.80;16.60;;;;;;;;;;5060951;28;20189;-74
2023/01/29 12:00:30;;;;;;;28.80;17.80;;;;;;;;;;5062261;28;20192;-74
2023/01/29 12:03:14;;;;;;;25.33;16.80;;;;;;;;;;5060771;28;20326;-75
2023/01/29 12:05:39;;;;;;;27.87;17.33;;;;;;;;;;5060081;28;20215;-74
2023/01/29 12:08:11;;;;;;;30.80;17.50;;;;;;;;;;5059870;28;20967;-75
2023/01/29 12:10:37;;;;;;;27.37;17.70;;;;;;;;;;5061335;28;20201;-74
2023/01/29 12:13:09;;;;;;;30.30;18.97;;;;;;;;;;5061082;28;20721;-74
2023/01/29 12:15:35;;;;;;;31.03;18.17;;;;;;;;;;5059509;28;20200;-76
2023/01/29 12:18:09;;;;;;;27.27;17.33;;;;;;;;;;5061144;28;20672;-76
2023/01/29 12:20:39;;;;;;;24.53;16.87;;;;;;;;;;5061076;28;20172;-73
2023/01/29 12:23:10;;;;;;;28.53;18.50;;;;;;;;;;5061793;28;20193;-75
2023/01/29 12:25:48;;;;;;;33.63;20.87;;;;;;;;;;5051056;28;20192;-74
2023/01/29 12:28:19;;;;;;;27.90;18.03;;;;;;;;;;5059467;28;20189;-74
2023/01/29 12:30:52;;;;;;;32.00;17.87;;;;;;;;;;5042560;28;20208;-74
2023/01/29 12:33:28;;;;;;;30.70;17.27;;;;;;;;;;5061847;28;20205;-75
2023/01/29 12:36:06;;;;;;;29.43;18.40;;;;;;;;;;5042803;28;20715;-74
2023/01/29 12:38:31;;;;;;;30.07;18.63;;;;;;;;;;5053422;28;20181;-74
2023/01/29 12:40:59;;;;;;;27.67;18.40;;;;;;;;;;5060377;28;20177;-74
2023/01/29 12:43:30;;;;;;;28.20;18.93;;;;;;;;;;5058447;28;20204;-75
2023/01/29 12:45:57;;;;;;;24.87;16.60;;;;;;;;;;5060133;28;20268;-74
2023/01/29 12:48:24;;;;;;;29.33;18.53;;;;;;;;;;5060988;28;20227;-76
2023/01/29 12:50:51;;;;;;;30.77;18.60;;;;;;;;;;5053910;28;20197;-74
2023/01/29 12:53:16;;;;;;;27.27;17.67;;;;;;;;;;5059741;28;20219;-74
2023/01/29 12:55:43;;;;;;;24.70;17.67;;;;;;;;;;5059672;28;20219;-74
2023/01/29 12:58:11;;;;;;;31.13;18.87;;;;;;;;;;5060319;28;20173;-74
2023/01/29 13:00:42;;;;;;;28.17;17.13;;;;;;;;;;5060232;28;20191;-74
2023/01/29 13:03:15;;;;;;;27.13;17.13;;;;;;;;;;5061547;28;20650;-75
2023/01/29 13:05:55;;;;;;;28.37;17.50;;;;;;;;;;5059495;28;20238;-75
2023/01/29 13:08:29;;;;;;;25.17;16.70;;;;;;;;;;5057113;28;20189;-75
2023/01/29 13:10:56;;;;;;;25.80;17.30;;;;;;;;;;5059857;28;20584;-74
2023/01/29 13:13:33;;;;;;;25.43;16.60;;;;;;;;;;5056674;28;20223;-74
2023/01/29 13:16:00;;;;;;;27.03;17.70;;;;;;;;;;5058729;28;20180;-76
2023/01/29 13:18:35;;;;;;;40.30;17.13;;;;;;;;;;5059353;28;20213;-74
2023/01/29 13:21:00;;;;;;;22.73;16.73;;;;;;;;;;5061228;28;20192;-74
2023/01/29 13:23:36;;;;;;;24.13;16.47;;;;;;;;;;5059997;28;20635;-74
2023/01/29 13:26:02;;;;;;;23.63;16.47;;;;;;;;;;5060298;28;20183;-74
2023/01/29 13:28:28;;;;;;;24.07;16.17;;;;;;;;;;5061043;28;20177;-74
2023/01/29 13:31:11;;;;;;;23.87;16.40;;;;;;;;;;5064308;28;20189;-74
2023/01/29 13:33:37;;;;;;;23.23;15.97;;;;;;;;;;5065110;28;20204;-74
2023/01/29 13:36:02;;;;;;;27.50;17.10;;;;;;;;;;5064916;28;20189;-74
2023/01/29 13:38:29;;;;;;;23.07;16.60;;;;;;;;;;5062292;28;20205;-74
2023/01/29 13:40:58;;;;;;;24.27;16.43;;;;;;;;;;5062243;28;20177;-74
2023/01/29 13:43:23;;;;;;;25.83;16.37;;;;;;;;;;5045389;28;22409;-74
2023/01/29 13:45:50;;;;;;;26.50;16.93;;;;;;;;;;5065076;28;20177;-74
2023/01/29 13:48:30;;;;;;;25.37;16.47;;;;;;;;;;5044226;28;20253;-74
2023/01/29 13:50:59;;;;;;;26.77;17.33;;;;;;;;;;5062896;28;20277;-74
2023/01/29 13:53:32;;;;;;;24.07;16.67;;;;;;;;;;5062970;28;20712;-74
2023/01/29 13:56:17;;;;;;;23.13;15.33;;;;;;;;;;5063961;28;20264;-74
2023/01/29 13:58:42;;;;;;;23.00;15.90;;;;;;;;;;5062082;28;20173;-74
2023/01/29 14:01:07;;;;;;;23.60;16.17;;;;;;;;;;5064437;28;20174;-75
2023/01/29 14:03:40;;;;;;;23.93;16.67;;;;;;;;;;5063502;28;20212;-74
2023/01/29 14:06:05;;;;;;;23.60;16.07;;;;;;;;;;5060775;28;20263;-74
2023/01/29 14:08:33;;;;;;;22.80;15.90;;;;;;;;;;5063415;28;20260;-74
2023/01/29 14:11:14;;;;;;;24.73;16.57;;;;;;;;;;5062913;28;20249;-74
2023/01/29 14:13:40;;;;;;;23.87;16.57;;;;;;;;;;5052770;28;20748;-74
2023/01/29 14:16:08;;;;;;;22.43;15.53;;;;;;;;;;5064740;28;20173;-75
2023/01/29 14:18:34;;;;;;;24.67;16.73;;;;;;;;;;5060332;28;20195;-75
2023/01/29 14:21:01;;;;;;;23.20;14.60;;;;;;;;;;5063720;28;20185;-74
2023/01/29 14:23:37;;;;;;;21.47;15.13;;;;;;;;;;5045079;28;20578;-75
2023/01/29 14:26:04;;;;;;;25.53;16.23;;;;;;;;;;5044582;28;20181;-75
2023/01/29 14:28:30;;;;;;;22.30;15.80;;;;;;;;;;5062611;28;20275;-74
2023/01/29 14:30:55;;;;;;;23.10;15.40;;;;;;;;;;5063481;28;20185;-75
2023/01/29 14:33:21;;;;;;;23.67;15.53;;;;;;;;;;5052720;28;20216;-75
2023/01/29 14:35:49;;;;;;;24.20;15.07;;;;;;;;;;5064371;28;20177;-74
2023/01/29 14:38:14;;;;;;;21.47;15.40;;;;;;;;;;5045095;28;20173;-74
2023/01/29 14:40:40;;;;;;;22.97;15.37;;;;;;;;;;5042260;28;20169;-74
2023/01/29 14:43:06;;;;;;;24.80;15.47;;;;;;;;;;5044905;28;20309;-74
2023/01/29 14:45:32;;;;;;;21.90;14.63;;;;;;;;;;5043229;28;20193;-74
2023/01/29 14:47:58;;;;;;;20.50;14.60;;;;;;;;;;5062917;28;20267;-74
2023/01/29 14:50:36;;;;;;;21.70;14.30;;;;;;;;;;5060253;28;20184;-74
2023/01/29 14:53:11;;;;;;;21.87;14.07;;;;;;;;;;5062911;28;20562;-74
2023/01/29 14:55:37;;;;;;;23.00;14.60;;;;;;;;;;5062060;28;20300;-74